Terminal Aerodrome Forecast
Issued by NWS Jackson, MS

Home | Current Version | Previous Version | Text Only | Print | Product List | Glossary On
Versions: 1 2 3 4 5 6 7 8 9 10 11 12 13
000
FTUS44 KMEG 232300
TAFTUP
TAF
KTUP 232340Z 2400/2424 00000KT P6SM SKC
     FM241500 19008KT P6SM SCT250
     FM241800 21012G20KT P6SM SCT050 SCT200=

USA.gov is the U.S. government's official web portal to all federal, state and local government web resources and services.